createdAt,value
2022-12-31T00:00:07.721Z,1.90
2022-12-31T00:00:40.023Z,1.38
2022-12-31T00:01:12.453Z,2.20
2022-12-31T00:01:43.903Z,1.63
2022-12-31T00:02:15.350Z,2.20
2022-12-31T00:02:46.941Z,2.20
2022-12-31T00:03:18.455Z,1.70
2022-12-31T00:03:50.352Z,1.80
2022-12-31T00:04:21.838Z,1.48
2022-12-31T00:04:54.298Z,1.77
2022-12-31T00:05:25.691Z,1.63
2022-12-31T00:05:57.151Z,1.40
2022-12-31T00:06:29.895Z,1.52
2022-12-31T00:07:01.291Z,2.03
2022-12-31T00:08:04.831Z,1.52
2022-12-31T00:08:36.258Z,1.98
2022-12-31T00:09:08.158Z,1.10
2022-12-31T00:09:39.598Z,2.55
2022-12-31T00:10:11.028Z,1.63
2022-12-31T00:10:42.414Z,1.90
2022-12-31T00:11:14.359Z,1.98
2022-12-31T00:11:45.747Z,1.33
2022-12-31T00:12:17.098Z,2.53
2022-12-31T00:12:48.475Z,2.33
2022-12-31T00:13:19.910Z,2.00
2022-12-31T00:13:51.958Z,1.42
2022-12-31T00:14:23.363Z,2.33
2022-12-31T00:14:54.839Z,1.70
2022-12-31T00:15:26.228Z,2.75
2022-12-31T00:16:11.785Z,2.17
2022-12-31T00:16:43.774Z,1.30
2022-12-31T00:17:15.177Z,2.00
2022-12-31T00:17:46.509Z,1.95
2022-12-31T00:18:17.846Z,1.92
2022-12-31T00:18:50.515Z,1.95
2022-12-31T00:19:21.910Z,1.70
2022-12-31T00:19:53.352Z,1.88
2022-12-31T00:20:24.774Z,2.85
2022-12-31T00:20:56.157Z,2.33
2022-12-31T00:21:28.809Z,1.60
2022-12-31T00:22:00.245Z,2.03
2022-12-31T00:22:31.664Z,2.20
2022-12-31T00:23:03.032Z,2.17
2022-12-31T00:23:34.739Z,1.83
2022-12-31T00:24:06.668Z,2.33
2022-12-31T00:24:38.023Z,2.45
2022-12-31T00:25:09.698Z,2.13
2022-12-31T00:25:41.106Z,2.10
2022-12-31T00:26:13.656Z,2.10
2022-12-31T00:26:45.047Z,1.92
2022-12-31T00:27:16.502Z,2.88
2022-12-31T00:27:47.958Z,2.22
2022-12-31T00:28:19.297Z,2.58
2022-12-31T00:28:51.101Z,2.58
2022-12-31T00:29:22.587Z,2.00
2022-12-31T00:29:53.986Z,2.05
2022-12-31T00:30:25.353Z,2.17
2022-12-31T00:30:57.026Z,2.90
2022-12-31T00:31:32.897Z,1.88
2022-12-31T00:32:04.346Z,2.05
2022-12-31T00:32:35.778Z,1.90
2022-12-31T00:33:07.141Z,1.90
2022-12-31T00:33:39.051Z,2.47
2022-12-31T00:34:10.449Z,1.90
2022-12-31T00:34:41.783Z,2.60
2022-12-31T00:35:13.310Z,2.30
2022-12-31T00:35:44.645Z,2.13
2022-12-31T00:36:17.967Z,2.25
2022-12-31T00:36:49.324Z,2.45
2022-12-31T00:37:20.750Z,2.40
2022-12-31T00:37:52.501Z,2.88
2022-12-31T00:38:23.934Z,2.03
2022-12-31T00:38:56.151Z,2.08
2022-12-31T00:39:27.547Z,1.98
2022-12-31T00:39:58.962Z,1.92
2022-12-31T00:40:30.378Z,2.22
2022-12-31T00:41:01.824Z,2.03
2022-12-31T00:41:33.224Z,2.67
2022-12-31T00:42:04.655Z,2.40
2022-12-31T00:42:36.069Z,1.75
2022-12-31T00:43:07.476Z,2.35
2022-12-31T00:43:39.069Z,2.72
2022-12-31T00:44:13.537Z,2.10
2022-12-31T00:44:44.930Z,1.85
2022-12-31T00:45:16.415Z,2.40
2022-12-31T00:45:47.809Z,1.95
2022-12-31T00:46:19.289Z,2.85
2022-12-31T00:46:50.714Z,1.95
2022-12-31T00:47:22.111Z,2.22
2022-12-31T00:47:53.533Z,2.35
2022-12-31T00:48:24.979Z,1.88
2022-12-31T00:48:56.374Z,2.28
2022-12-31T00:49:27.750Z,2.15
2022-12-31T00:49:59.081Z,1.85
2022-12-31T00:50:30.457Z,2.50
2022-12-31T00:51:02.578Z,2.10
2022-12-31T00:51:34.001Z,2.55
2022-12-31T00:52:05.409Z,2.22
2022-12-31T00:52:36.962Z,2.20
2022-12-31T00:53:08.335Z,2.30
2022-12-31T00:53:39.813Z,2.22
2022-12-31T00:54:11.196Z,2.10
2022-12-31T00:54:42.580Z,2.40
2022-12-31T00:55:13.973Z,2.05
2022-12-31T00:55:45.376Z,2.78
2022-12-31T00:56:18.472Z,2.10
2022-12-31T00:56:49.841Z,1.80
2022-12-31T00:57:21.246Z,2.13
2022-12-31T00:57:52.628Z,1.80
2022-12-31T00:58:23.973Z,2.95
2022-12-31T00:58:55.714Z,3.17
2022-12-31T00:59:27.133Z,1.65
2022-12-31T00:59:58.550Z,2.47
2022-12-31T01:00:29.981Z,2.17
2022-12-31T01:01:08.410Z,2.20
2022-12-31T01:01:40.665Z,2.15
2022-12-31T01:02:12.264Z,3.47
2022-12-31T01:02:44.098Z,2.45
2022-12-31T01:03:15.691Z,1.70
2022-12-31T01:03:47.938Z,2.05
2022-12-31T01:04:20.071Z,1.83
2022-12-31T01:04:51.526Z,2.50
2022-12-31T01:05:22.961Z,2.25
2022-12-31T01:05:58.474Z,1.90
2022-12-31T01:06:29.921Z,2.53
2022-12-31T01:07:01.262Z,2.03
2022-12-31T01:07:32.693Z,2.00
2022-12-31T01:08:04.235Z,2.45
2022-12-31T01:08:35.787Z,2.00
2022-12-31T01:09:07.291Z,2.40
2022-12-31T01:09:38.695Z,2.08
2022-12-31T01:10:10.134Z,2.00
2022-12-31T01:10:41.520Z,2.00
2022-12-31T01:11:12.908Z,1.83
2022-12-31T01:11:44.495Z,1.70
2022-12-31T01:12:15.898Z,2.40
2022-12-31T01:12:47.317Z,2.80
2022-12-31T01:13:18.814Z,2.70
2022-12-31T01:13:50.197Z,1.92
2022-12-31T01:14:21.673Z,2.47
2022-12-31T01:14:53.070Z,1.92
2022-12-31T01:15:24.452Z,2.92
2022-12-31T01:15:56.051Z,2.15
2022-12-31T01:16:29.003Z,2.10
2022-12-31T01:17:00.366Z,2.10
2022-12-31T01:17:31.706Z,2.28
2022-12-31T01:18:03.822Z,3.23
2022-12-31T01:18:35.552Z,2.15
2022-12-31T01:19:08.633Z,1.98
2022-12-31T01:19:40.386Z,2.58
2022-12-31T01:20:11.744Z,2.15
2022-12-31T01:20:43.870Z,2.53
2022-12-31T01:21:15.435Z,2.22
2022-12-31T01:21:47.813Z,2.47
2022-12-31T01:22:19.238Z,2.35
2022-12-31T01:22:50.675Z,2.15
2022-12-31T01:23:22.108Z,2.65
2022-12-31T01:23:53.504Z,2.50
2022-12-31T01:24:24.992Z,2.20
2022-12-31T01:24:56.388Z,2.10
2022-12-31T01:25:27.803Z,1.95
2022-12-31T01:26:00.271Z,2.30
2022-12-31T01:26:31.813Z,1.93
2022-12-31T01:27:03.259Z,2.40
2022-12-31T01:27:34.639Z,2.60
2022-12-31T01:28:06.374Z,3.60
2022-12-31T01:28:37.751Z,2.25
2022-12-31T01:29:09.801Z,2.72
2022-12-31T01:29:41.175Z,1.98
2022-12-31T01:30:12.706Z,2.38
2022-12-31T01:30:44.104Z,2.65
2022-12-31T01:31:16.792Z,2.40
2022-12-31T01:31:48.231Z,2.50
2022-12-31T01:32:19.637Z,2.22
2022-12-31T01:32:51.006Z,2.08
2022-12-31T01:33:22.394Z,2.22
2022-12-31T01:33:54.260Z,3.17
2022-12-31T01:34:25.732Z,3.72
2022-12-31T01:34:57.163Z,2.08
2022-12-31T01:35:28.605Z,2.70
2022-12-31T01:36:07.359Z,2.78
2022-12-31T01:36:39.054Z,2.58
2022-12-31T01:37:10.489Z,2.60
2022-12-31T01:37:41.825Z,3.20
2022-12-31T01:38:13.262Z,3.45
2022-12-31T01:38:44.916Z,2.70
2022-12-31T01:39:17.278Z,2.58
2022-12-31T01:39:48.761Z,2.58
2022-12-31T01:40:20.188Z,2.55
2022-12-31T01:40:51.617Z,2.22
2022-12-31T01:41:27.741Z,2.40
2022-12-31T01:41:59.159Z,2.28
2022-12-31T01:42:30.545Z,3.00
2022-12-31T01:43:01.927Z,3.10
2022-12-31T01:44:11.946Z,2.40
2022-12-31T01:44:48.555Z,2.42
2022-12-31T01:45:20.073Z,2.10
2022-12-31T01:45:53.389Z,2.60
2022-12-31T01:46:27.360Z,2.60
2022-12-31T01:47:02.786Z,2.65
2022-12-31T01:47:37.405Z,2.50
2022-12-31T01:48:11.694Z,2.85
2022-12-31T01:48:43.180Z,2.60
2022-12-31T01:49:35.469Z,2.58
2022-12-31T01:50:15.652Z,2.37
2022-12-31T01:50:47.213Z,2.95
2022-12-31T01:51:19.363Z,2.92
2022-12-31T01:51:54.214Z,2.28
2022-12-31T01:52:28.205Z,3.30
2022-12-31T01:53:02.114Z,2.70
2022-12-31T01:53:33.611Z,2.80
2022-12-31T01:54:06.469Z,2.65
2022-12-31T01:54:42.202Z,2.90
2022-12-31T01:55:13.552Z,3.35
2022-12-31T01:55:46.857Z,3.55
2022-12-31T01:56:18.525Z,3.00
2022-12-31T01:56:51.185Z,2.42
2022-12-31T01:57:23.795Z,3.05
2022-12-31T01:58:01.168Z,3.20
2022-12-31T01:58:38.301Z,2.73
2022-12-31T01:59:10.522Z,3.25
2022-12-31T01:59:42.303Z,2.65
2022-12-31T02:00:14.192Z,3.30
2022-12-31T02:00:46.340Z,3.53
2022-12-31T02:01:21.046Z,3.13
2022-12-31T02:01:52.917Z,3.58
2022-12-31T02:02:24.504Z,2.10
2022-12-31T02:02:56.028Z,3.38
2022-12-31T02:03:28.599Z,2.78
2022-12-31T02:04:02.310Z,2.30
2022-12-31T02:04:33.773Z,2.97
2022-12-31T02:05:09.469Z,2.65
2022-12-31T02:05:47.861Z,2.53
2022-12-31T02:06:36.402Z,2.65
2022-12-31T02:07:08.660Z,2.88
2022-12-31T02:07:40.055Z,3.17
2022-12-31T02:08:11.749Z,3.40
2022-12-31T02:08:43.799Z,2.85
2022-12-31T02:09:15.654Z,2.87
2022-12-31T02:09:47.085Z,2.78
2022-12-31T02:10:18.558Z,3.78
2022-12-31T02:10:49.904Z,3.08
2022-12-31T02:11:29.445Z,2.95
2022-12-31T02:12:00.828Z,2.40
2022-12-31T02:12:32.255Z,2.78
2022-12-31T02:13:03.738Z,3.10
2022-12-31T02:13:35.182Z,3.60
2022-12-31T02:14:09.001Z,3.03
2022-12-31T02:14:48.265Z,2.17
2022-12-31T02:15:22.965Z,3.13
2022-12-31T02:16:04.785Z,3.03
2022-12-31T02:16:36.321Z,2.97
2022-12-31T02:17:27.450Z,2.63
2022-12-31T02:18:01.683Z,3.00
2022-12-31T02:18:38.044Z,3.63
2022-12-31T02:19:09.467Z,2.40
2022-12-31T02:19:49.964Z,3.63
2022-12-31T02:20:24.478Z,3.95
2022-12-31T02:21:11.640Z,3.22
2022-12-31T02:22:00.097Z,2.90
2022-12-31T02:22:34.472Z,2.60
2022-12-31T02:23:14.880Z,3.13
2022-12-31T02:24:04.640Z,3.27
2022-12-31T02:24:56.300Z,3.22
2022-12-31T02:25:27.896Z,3.10
2022-12-31T02:26:05.628Z,3.30
2022-12-31T02:26:37.020Z,3.20
2022-12-31T02:27:33.806Z,2.85
2022-12-31T02:28:07.951Z,2.75
2022-12-31T02:28:47.525Z,3.20
2022-12-31T02:29:36.998Z,2.67
2022-12-31T02:30:11.084Z,3.10
2022-12-31T02:30:44.568Z,3.08
2022-12-31T02:31:24.439Z,2.80
2022-12-31T02:32:05.473Z,3.00
2022-12-31T02:32:48.216Z,2.92
2022-12-31T02:33:22.638Z,2.70
2022-12-31T02:34:00.308Z,3.13
2022-12-31T02:34:34.117Z,2.75
2022-12-31T02:35:31.533Z,3.20
2022-12-31T02:36:06.260Z,2.92
2022-12-31T02:36:40.213Z,3.60
2022-12-31T02:37:14.501Z,2.70
2022-12-31T02:37:47.845Z,3.00
2022-12-31T02:38:21.747Z,2.85
2022-12-31T02:38:53.390Z,3.33
2022-12-31T02:39:24.870Z,3.00
2022-12-31T02:39:56.504Z,3.40
2022-12-31T02:40:28.115Z,2.90
2022-12-31T02:41:00.312Z,2.70
2022-12-31T02:41:31.754Z,3.22
2022-12-31T02:42:03.345Z,2.25
2022-12-31T02:42:34.773Z,3.30
2022-12-31T02:43:06.476Z,2.47
2022-12-31T02:43:45.803Z,2.60
2022-12-31T02:44:27.934Z,2.30
2022-12-31T02:44:59.298Z,2.65
2022-12-31T02:45:56.743Z,3.30
2022-12-31T02:46:48.428Z,3.40
2022-12-31T02:47:25.928Z,2.85
2022-12-31T02:48:23.563Z,2.50
2022-12-31T02:49:15.220Z,3.22
2022-12-31T02:49:49.688Z,3.03
2022-12-31T02:50:21.078Z,3.20
2022-12-31T02:51:13.689Z,3.00
2022-12-31T02:51:54.259Z,2.80
2022-12-31T02:52:43.755Z,2.27
2022-12-31T02:53:17.892Z,3.58
2022-12-31T02:53:58.355Z,3.13
2022-12-31T02:54:35.786Z,3.00
2022-12-31T02:55:10.212Z,2.85
2022-12-31T02:56:00.217Z,2.85
2022-12-31T02:56:38.053Z,2.47
2022-12-31T02:57:28.131Z,2.60
2022-12-31T02:58:21.478Z,2.65
2022-12-31T02:58:55.984Z,3.10
2022-12-31T02:59:33.819Z,3.50
2022-12-31T03:00:06.643Z,3.17
2022-12-31T03:00:41.711Z,2.63
2022-12-31T03:01:16.358Z,3.15
2022-12-31T03:01:50.910Z,2.85
2022-12-31T03:02:23.960Z,2.35
2022-12-31T03:02:55.861Z,2.88
2022-12-31T03:03:27.554Z,2.80
2022-12-31T03:03:58.989Z,2.58
2022-12-31T03:04:31.351Z,2.78
2022-12-31T03:05:03.206Z,2.75
2022-12-31T03:05:37.509Z,2.55
2022-12-31T03:06:09.505Z,2.28
2022-12-31T03:06:41.964Z,2.85
2022-12-31T03:07:14.779Z,2.58
2022-12-31T03:07:46.391Z,3.00
2022-12-31T03:08:21.498Z,3.00
2022-12-31T03:08:52.873Z,2.92
2022-12-31T03:09:24.323Z,2.55
2022-12-31T03:09:55.709Z,3.13
2022-12-31T03:10:27.198Z,3.25
2022-12-31T03:10:58.645Z,3.40
2022-12-31T03:11:30.075Z,2.70
2022-12-31T03:12:02.021Z,2.80
2022-12-31T03:12:33.916Z,3.65
2022-12-31T03:13:05.303Z,2.53
2022-12-31T03:13:36.705Z,2.53
2022-12-31T03:14:08.098Z,2.97
2022-12-31T03:14:39.519Z,3.33
2022-12-31T03:15:11.778Z,2.88
2022-12-31T03:15:43.363Z,2.95
2022-12-31T03:16:14.779Z,3.13
2022-12-31T03:16:46.193Z,2.40
2022-12-31T03:17:17.617Z,3.47
2022-12-31T03:17:56.793Z,2.38
2022-12-31T03:18:28.179Z,2.85
2022-12-31T03:18:59.610Z,2.72
2022-12-31T03:19:31.007Z,2.55
2022-12-31T03:20:02.484Z,2.25
2022-12-31T03:20:36.027Z,2.72
2022-12-31T03:21:12.326Z,3.00
2022-12-31T03:21:43.762Z,2.40
2022-12-31T03:22:15.356Z,2.40
2022-12-31T03:22:46.750Z,2.83
2022-12-31T03:23:20.067Z,2.88
2022-12-31T03:23:51.461Z,2.53
2022-12-31T03:24:23.156Z,2.83
2022-12-31T03:25:01.925Z,2.63
2022-12-31T03:25:33.348Z,2.80
2022-12-31T03:26:05.810Z,2.80
2022-12-31T03:26:37.200Z,3.00
2022-12-31T03:27:08.630Z,3.30
2022-12-31T03:27:40.078Z,2.85
2022-12-31T03:28:13.248Z,2.85
2022-12-31T03:28:44.629Z,2.70
2022-12-31T03:29:16.014Z,2.10
2022-12-31T03:29:47.484Z,3.38
2022-12-31T03:30:19.641Z,2.58
2022-12-31T03:30:52.581Z,2.35
2022-12-31T03:31:23.957Z,2.45
2022-12-31T03:31:55.401Z,2.83
2022-12-31T03:32:26.796Z,2.83
2022-12-31T03:33:00.920Z,2.65
2022-12-31T03:33:33.512Z,3.15
2022-12-31T03:34:04.839Z,3.45
2022-12-31T03:34:36.242Z,2.80
2022-12-31T03:35:08.174Z,2.65
2022-12-31T03:35:40.891Z,3.38
2022-12-31T03:36:13.522Z,3.03
2022-12-31T03:36:44.948Z,3.13
2022-12-31T03:37:16.390Z,3.22
2022-12-31T03:37:48.657Z,3.08
2022-12-31T03:38:20.142Z,2.50
2022-12-31T03:38:53.050Z,2.80
2022-12-31T03:39:24.436Z,3.53
2022-12-31T03:39:55.834Z,2.75
2022-12-31T03:40:27.939Z,3.03
2022-12-31T03:40:59.363Z,3.10
2022-12-31T03:41:30.748Z,2.75
2022-12-31T03:42:02.142Z,3.10
2022-12-31T03:42:33.584Z,2.58
2022-12-31T03:43:04.964Z,2.10
2022-12-31T03:43:36.354Z,2.47
2022-12-31T03:44:07.749Z,3.70
2022-12-31T03:44:39.217Z,2.90
2022-12-31T03:45:11.224Z,3.05
2022-12-31T03:45:42.876Z,3.00
2022-12-31T03:46:14.349Z,2.90
2022-12-31T03:46:45.848Z,2.90
2022-12-31T03:47:17.226Z,2.33
2022-12-31T03:47:48.623Z,2.42
2022-12-31T03:48:21.379Z,2.80
2022-12-31T03:48:52.823Z,2.72
2022-12-31T03:49:24.210Z,3.13
2022-12-31T03:49:55.603Z,2.75
2022-12-31T03:50:27.450Z,2.38
2022-12-31T03:50:58.832Z,2.60
2022-12-31T03:51:30.219Z,2.55
2022-12-31T03:52:01.596Z,3.20
2022-12-31T03:52:35.956Z,3.50
2022-12-31T03:53:07.333Z,2.28
2022-12-31T03:53:38.785Z,2.60
2022-12-31T03:54:10.216Z,2.57
2022-12-31T03:54:41.602Z,2.20
2022-12-31T03:55:13.155Z,3.05
2022-12-31T03:55:44.584Z,2.45
2022-12-31T03:56:16.021Z,2.65
2022-12-31T03:56:49.556Z,2.45
2022-12-31T03:57:21.096Z,2.83
2022-12-31T03:57:52.532Z,2.50
2022-12-31T03:58:23.919Z,3.33
2022-12-31T03:58:55.368Z,3.10
2022-12-31T03:59:26.858Z,2.30
2022-12-31T03:59:58.286Z,2.70
2022-12-31T04:00:29.807Z,2.45
2022-12-31T04:01:01.324Z,2.78
2022-12-31T04:01:32.895Z,3.38
2022-12-31T04:02:04.792Z,2.83
2022-12-31T04:02:36.480Z,3.22
2022-12-31T04:03:07.941Z,2.20
2022-12-31T04:03:39.392Z,2.75
2022-12-31T04:04:10.802Z,2.58
2022-12-31T04:04:42.197Z,2.72
2022-12-31T04:05:13.880Z,2.80
2022-12-31T04:05:45.266Z,2.47
2022-12-31T04:06:16.660Z,2.65
2022-12-31T04:06:48.141Z,2.75
2022-12-31T04:07:19.566Z,2.45
2022-12-31T04:07:50.908Z,2.97
2022-12-31T04:08:22.722Z,2.22
2022-12-31T04:08:54.144Z,3.15
2022-12-31T04:09:25.553Z,3.28
2022-12-31T04:09:57.191Z,2.50
2022-12-31T04:10:28.562Z,2.42
2022-12-31T04:10:59.905Z,2.50
2022-12-31T04:11:31.276Z,2.92
2022-12-31T04:12:02.664Z,2.53
2022-12-31T04:12:34.105Z,2.90
2022-12-31T04:13:05.444Z,2.78
2022-12-31T04:13:36.885Z,3.25
2022-12-31T04:14:08.571Z,2.35
2022-12-31T04:14:40.008Z,2.35
2022-12-31T04:15:14.731Z,2.97
2022-12-31T04:15:49.085Z,2.00
2022-12-31T04:16:20.678Z,2.72
2022-12-31T04:16:52.087Z,3.47
2022-12-31T04:17:23.601Z,2.92
2022-12-31T04:17:54.990Z,3.95
2022-12-31T04:18:26.367Z,3.30
2022-12-31T04:18:57.956Z,3.05
2022-12-31T04:19:29.344Z,3.05
2022-12-31T04:20:00.791Z,2.75
2022-12-31T04:20:32.174Z,2.28
2022-12-31T04:21:04.367Z,2.60
2022-12-31T04:21:35.760Z,3.35
2022-12-31T04:22:07.246Z,3.67
2022-12-31T04:22:38.733Z,2.50
2022-12-31T04:23:10.118Z,2.80
2022-12-31T04:23:41.516Z,3.38
2022-12-31T04:24:12.943Z,3.80
2022-12-31T04:24:44.381Z,2.60
2022-12-31T04:25:15.821Z,2.70
2022-12-31T04:25:47.215Z,3.67
2022-12-31T04:26:18.590Z,3.08
2022-12-31T04:26:49.984Z,2.97
2022-12-31T04:27:21.360Z,3.05
2022-12-31T04:27:52.758Z,3.60
2022-12-31T04:28:24.132Z,2.87
2022-12-31T04:28:55.512Z,3.05
2022-12-31T04:29:26.897Z,3.15
2022-12-31T04:29:58.288Z,3.22
2022-12-31T04:30:29.676Z,2.80
2022-12-31T04:31:01.121Z,3.42
2022-12-31T04:31:32.559Z,2.80
2022-12-31T04:32:04.276Z,3.25
2022-12-31T04:32:35.687Z,2.88
2022-12-31T04:33:07.070Z,3.17
2022-12-31T04:33:38.451Z,2.77
2022-12-31T04:34:09.824Z,2.95
2022-12-31T04:34:41.217Z,3.55
2022-12-31T04:35:14.590Z,2.75
2022-12-31T04:35:45.941Z,3.70
2022-12-31T04:36:17.335Z,2.42
2022-12-31T04:36:48.719Z,3.10
2022-12-31T04:37:20.099Z,2.80
2022-12-31T04:37:51.524Z,3.10
2022-12-31T04:38:22.938Z,3.10
2022-12-31T04:38:54.360Z,3.88
2022-12-31T04:39:26.004Z,3.60
2022-12-31T04:40:03.537Z,2.78
2022-12-31T04:40:37.074Z,3.13
2022-12-31T04:41:08.509Z,3.22
2022-12-31T04:41:39.894Z,2.78
2022-12-31T04:42:11.236Z,2.90
2022-12-31T04:42:42.593Z,3.30
2022-12-31T04:43:13.961Z,3.10
2022-12-31T04:43:46.571Z,2.90
2022-12-31T04:44:18.266Z,3.08
2022-12-31T04:44:49.617Z,2.72
2022-12-31T04:45:20.994Z,3.75
2022-12-31T04:45:52.467Z,3.00
2022-12-31T04:46:27.857Z,3.60
2022-12-31T04:46:59.257Z,3.33
2022-12-31T04:47:30.735Z,3.03
2022-12-31T04:48:02.215Z,3.10
2022-12-31T04:48:34.103Z,3.00
2022-12-31T04:49:05.605Z,3.25
2022-12-31T04:49:37.037Z,3.22
2022-12-31T04:50:08.524Z,3.10
2022-12-31T04:50:39.921Z,3.42
2022-12-31T04:51:11.694Z,3.63
2022-12-31T04:51:43.091Z,3.15
2022-12-31T04:52:14.483Z,3.35
2022-12-31T04:52:46.120Z,4.00
2022-12-31T04:53:17.507Z,3.20
2022-12-31T04:53:49.253Z,3.15
2022-12-31T04:54:20.687Z,3.10
2022-12-31T04:54:52.082Z,4.13
2022-12-31T04:55:23.458Z,3.30
2022-12-31T04:55:55.001Z,3.05
2022-12-31T04:56:27.142Z,3.25
2022-12-31T04:56:58.549Z,3.60
2022-12-31T04:57:29.978Z,3.22
2022-12-31T04:58:01.409Z,3.58
2022-12-31T04:58:32.998Z,2.50
2022-12-31T04:59:05.195Z,3.28
2022-12-31T04:59:36.656Z,3.58
2022-12-31T05:00:08.422Z,3.03
2022-12-31T05:00:39.829Z,3.83
2022-12-31T05:01:12.154Z,3.67
2022-12-31T05:01:43.876Z,4.25
2022-12-31T05:02:15.466Z,4.15
2022-12-31T05:02:47.123Z,3.13
2022-12-31T05:03:18.813Z,3.35
2022-12-31T05:03:50.245Z,3.55
2022-12-31T05:04:21.691Z,2.90
2022-12-31T05:04:53.117Z,3.60
2022-12-31T05:05:24.452Z,3.53
2022-12-31T05:06:00.505Z,3.45
2022-12-31T05:06:31.910Z,3.10
2022-12-31T05:07:03.343Z,3.22
2022-12-31T05:07:34.754Z,3.30
2022-12-31T05:08:06.150Z,3.63
2022-12-31T05:08:37.603Z,3.13
2022-12-31T05:09:09.044Z,3.50
2022-12-31T05:09:40.460Z,3.50
2022-12-31T05:10:11.899Z,3.45
2022-12-31T05:10:44.627Z,3.72
2022-12-31T05:11:16.611Z,3.05
2022-12-31T05:11:48.014Z,4.50
2022-12-31T05:12:19.560Z,4.07
2022-12-31T05:12:51.000Z,3.00
2022-12-31T05:13:25.720Z,3.45
2022-12-31T05:14:00.818Z,3.33
2022-12-31T05:14:32.163Z,3.67
2022-12-31T05:15:03.697Z,3.42
2022-12-31T05:15:35.128Z,3.38
2022-12-31T05:16:06.977Z,3.90
2022-12-31T05:16:38.348Z,3.28
2022-12-31T05:17:09.694Z,3.33
2022-12-31T05:17:41.083Z,3.15
2022-12-31T05:18:12.546Z,3.83
2022-12-31T05:18:43.971Z,3.43
2022-12-31T05:19:17.854Z,3.25
2022-12-31T05:19:49.295Z,3.60
2022-12-31T05:20:20.640Z,4.05
2022-12-31T05:20:52.172Z,3.60
2022-12-31T05:21:23.563Z,3.38
2022-12-31T05:21:54.947Z,3.50
2022-12-31T05:22:26.342Z,4.13
2022-12-31T05:22:57.918Z,3.60
2022-12-31T05:23:29.416Z,3.53
2022-12-31T05:24:00.842Z,2.92
2022-12-31T05:24:32.208Z,4.57
2022-12-31T05:25:03.717Z,4.32
2022-12-31T05:25:35.108Z,3.65
2022-12-31T05:26:07.203Z,3.40
2022-12-31T05:26:38.576Z,3.10
2022-12-31T05:27:09.973Z,3.90
2022-12-31T05:27:41.463Z,3.25
2022-12-31T05:28:13.006Z,3.40
2022-12-31T05:28:44.545Z,3.38
2022-12-31T05:29:15.963Z,3.58
2022-12-31T05:29:47.357Z,4.18
2022-12-31T05:30:18.802Z,3.80
2022-12-31T05:30:50.693Z,4.25
2022-12-31T05:31:22.554Z,3.28
2022-12-31T05:31:53.995Z,3.15
2022-12-31T05:32:25.489Z,3.30
2022-12-31T05:32:56.912Z,3.60
2022-12-31T05:33:28.245Z,4.30
2022-12-31T05:33:59.639Z,3.90
2022-12-31T05:34:31.121Z,3.42
2022-12-31T05:35:02.506Z,3.50
2022-12-31T05:35:33.984Z,4.07
2022-12-31T05:36:05.549Z,3.30
2022-12-31T05:36:36.978Z,3.15
2022-12-31T05:37:08.424Z,4.05
2022-12-31T05:37:40.105Z,4.18
2022-12-31T05:38:11.732Z,3.40
2022-12-31T05:38:43.131Z,3.63
2022-12-31T05:39:14.625Z,4.28
2022-12-31T05:39:46.088Z,3.88
2022-12-31T05:40:17.546Z,2.97
2022-12-31T05:40:48.957Z,3.17
2022-12-31T05:41:20.343Z,3.17
2022-12-31T05:41:51.757Z,3.90
2022-12-31T05:42:23.158Z,3.42
2022-12-31T05:42:54.886Z,3.67
2022-12-31T05:43:26.276Z,3.50
2022-12-31T05:43:57.659Z,3.10
2022-12-31T05:44:29.043Z,3.47
2022-12-31T05:45:00.425Z,4.25
2022-12-31T05:45:31.832Z,4.45
2022-12-31T05:46:04.584Z,4.03
2022-12-31T05:46:35.997Z,3.85
2022-12-31T05:47:07.512Z,4.50
2022-12-31T05:47:42.431Z,4.28
2022-12-31T05:48:13.764Z,3.72
2022-12-31T05:48:45.163Z,3.78
2022-12-31T05:49:16.559Z,4.10
2022-12-31T05:49:47.985Z,4.05
2022-12-31T05:50:19.460Z,3.65
2022-12-31T05:50:51.025Z,3.40
2022-12-31T05:51:22.394Z,3.80
2022-12-31T05:51:53.798Z,3.63
2022-12-31T05:52:25.269Z,4.27
2022-12-31T05:52:56.800Z,3.80
2022-12-31T05:53:28.243Z,3.60
2022-12-31T05:53:59.628Z,3.83
2022-12-31T05:54:31.020Z,3.92
2022-12-31T05:55:02.702Z,3.90
2022-12-31T05:55:34.033Z,3.53
2022-12-31T05:56:05.582Z,3.88
2022-12-31T05:56:37.072Z,4.03
2022-12-31T05:57:08.780Z,3.40
2022-12-31T05:57:40.247Z,3.70
2022-12-31T05:58:11.646Z,3.83
2022-12-31T05:58:43.040Z,3.78
2022-12-31T05:59:14.525Z,4.03
2022-12-31T05:59:45.884Z,3.85
2022-12-31T06:00:17.385Z,3.67
2022-12-31T06:00:48.823Z,4.00
2022-12-31T06:01:20.288Z,3.90
2022-12-31T06:01:51.823Z,3.38
2022-12-31T06:02:23.665Z,3.90
2022-12-31T06:02:55.175Z,4.20
2022-12-31T06:03:26.584Z,3.88
2022-12-31T06:03:58.125Z,3.50
2022-12-31T06:04:29.559Z,4.32
2022-12-31T06:05:00.903Z,4.00
2022-12-31T06:05:32.483Z,4.00
2022-12-31T06:06:03.964Z,4.07
2022-12-31T06:06:35.403Z,4.10
2022-12-31T06:07:06.839Z,4.13
2022-12-31T06:07:38.225Z,3.58
2022-12-31T06:08:10.707Z,3.60
2022-12-31T06:08:42.148Z,3.67
2022-12-31T06:09:14.472Z,3.88
2022-12-31T06:09:45.857Z,3.65
2022-12-31T06:10:17.295Z,3.78
2022-12-31T06:10:48.668Z,3.40
2022-12-31T06:11:20.088Z,3.65
2022-12-31T06:11:51.468Z,3.93
2022-12-31T06:12:22.857Z,3.75
2022-12-31T06:12:54.257Z,3.63
2022-12-31T06:13:25.743Z,4.10
2022-12-31T06:13:57.123Z,3.42
2022-12-31T06:14:28.508Z,3.92
2022-12-31T06:14:59.913Z,4.13
2022-12-31T06:15:31.342Z,4.40
2022-12-31T06:16:08.557Z,3.70
2022-12-31T06:16:40.436Z,4.03
2022-12-31T06:17:11.891Z,4.03
2022-12-31T06:17:43.317Z,4.72
2022-12-31T06:18:14.712Z,3.55
2022-12-31T06:18:48.851Z,4.05
2022-12-31T06:19:20.262Z,4.70
2022-12-31T06:19:51.674Z,4.60
2022-12-31T06:20:23.117Z,4.38
2022-12-31T06:20:54.515Z,4.07
2022-12-31T06:21:25.945Z,3.95
2022-12-31T06:21:57.319Z,4.60
2022-12-31T06:22:28.717Z,3.72
2022-12-31T06:23:00.081Z,4.63
2022-12-31T06:23:31.508Z,3.80
2022-12-31T06:24:02.933Z,4.03
2022-12-31T06:24:34.363Z,4.05
2022-12-31T06:25:06.056Z,4.57
2022-12-31T06:25:37.806Z,3.65
2022-12-31T06:26:09.539Z,3.92
2022-12-31T06:26:40.928Z,3.40
2022-12-31T06:27:12.618Z,4.07
2022-12-31T06:27:44.022Z,3.78
2022-12-31T06:28:20.128Z,4.20
2022-12-31T06:28:52.162Z,4.20
2022-12-31T06:29:23.638Z,3.95
2022-12-31T06:29:55.026Z,3.88
2022-12-31T06:30:26.416Z,4.50
2022-12-31T06:31:05.153Z,3.97
2022-12-31T06:31:37.200Z,3.80
2022-12-31T06:32:08.611Z,4.68
2022-12-31T06:32:39.995Z,4.00
2022-12-31T06:33:11.378Z,4.18
2022-12-31T06:33:42.829Z,4.57
2022-12-31T06:34:14.206Z,3.83
2022-12-31T06:34:45.597Z,3.88
2022-12-31T06:35:17.030Z,3.92
2022-12-31T06:35:48.480Z,3.72
2022-12-31T06:36:19.867Z,4.60
2022-12-31T06:36:51.283Z,4.20
2022-12-31T06:37:22.676Z,4.07
2022-12-31T06:37:54.062Z,4.20
2022-12-31T06:38:26.128Z,4.50
2022-12-31T06:38:57.509Z,4.20
2022-12-31T06:39:28.992Z,3.70
2022-12-31T06:40:00.659Z,4.13
2022-12-31T06:40:32.040Z,4.30
2022-12-31T06:41:07.203Z,3.78
2022-12-31T06:41:38.585Z,3.85
2022-12-31T06:42:09.971Z,4.20
2022-12-31T06:42:41.375Z,3.88
2022-12-31T06:43:12.731Z,4.17
2022-12-31T06:43:44.180Z,3.90
2022-12-31T06:44:16.748Z,3.70
2022-12-31T06:44:48.238Z,4.35
2022-12-31T06:45:19.915Z,4.33
2022-12-31T06:45:51.360Z,4.38
2022-12-31T06:46:22.825Z,4.10
2022-12-31T06:46:54.353Z,4.65
2022-12-31T06:47:25.882Z,3.40
2022-12-31T06:47:57.317Z,4.13
2022-12-31T06:48:28.694Z,3.78
2022-12-31T06:49:00.119Z,3.83
2022-12-31T06:49:31.476Z,4.38
2022-12-31T06:50:03.318Z,5.00
2022-12-31T06:50:35.058Z,4.20
2022-12-31T06:51:11.857Z,3.90
2022-12-31T06:51:46.429Z,3.78
2022-12-31T06:52:17.819Z,4.70
2022-12-31T06:52:49.207Z,5.07
2022-12-31T06:53:20.631Z,4.05
2022-12-31T06:53:52.180Z,4.55
2022-12-31T06:54:23.609Z,4.57
2022-12-31T06:54:55.171Z,3.90
2022-12-31T06:55:26.847Z,4.22
2022-12-31T06:55:58.405Z,4.45
2022-12-31T06:56:34.493Z,4.47
2022-12-31T06:57:06.591Z,4.20
2022-12-31T06:57:38.094Z,4.18
2022-12-31T06:58:12.797Z,4.38
2022-12-31T06:58:44.300Z,4.25
2022-12-31T06:59:22.795Z,4.82
2022-12-31T06:59:54.288Z,4.40
2022-12-31T07:00:25.817Z,4.10
2022-12-31T07:01:04.866Z,4.70
2022-12-31T07:01:55.019Z,3.90
2022-12-31T07:02:52.233Z,4.55
2022-12-31T07:03:37.709Z,3.75
2022-12-31T07:04:11.853Z,4.20
2022-12-31T07:04:55.337Z,4.07
2022-12-31T07:05:39.063Z,4.03
2022-12-31T07:06:18.994Z,4.03
2022-12-31T07:07:09.186Z,4.53
2022-12-31T07:07:43.615Z,5.10
2022-12-31T07:08:14.967Z,4.55
2022-12-31T07:08:59.206Z,4.90
2022-12-31T07:09:36.452Z,4.40
2022-12-31T07:10:29.811Z,4.90
2022-12-31T07:11:20.224Z,4.13
2022-12-31T07:11:57.067Z,4.40
2022-12-31T07:12:39.156Z,4.60
2022-12-31T07:13:33.287Z,4.50
2022-12-31T07:14:17.471Z,4.20
2022-12-31T07:14:51.668Z,4.53
2022-12-31T07:15:41.408Z,4.50
2022-12-31T07:16:27.972Z,4.53
2022-12-31T07:17:17.919Z,4.07
2022-12-31T07:17:49.296Z,4.82
2022-12-31T07:18:39.315Z,4.82
2022-12-31T07:19:43.014Z,4.30
2022-12-31T07:20:16.090Z,4.65
2022-12-31T07:20:47.619Z,4.22